createdAt,value
2018-07-11T00:00:57.954Z,90.60
2018-07-11T00:03:52.524Z,89.30
2018-07-11T00:06:22.889Z,88.40
2018-07-11T00:08:52.261Z,87.00
2018-07-11T00:11:21.454Z,86.80
2018-07-11T00:13:50.810Z,86.20
2018-07-11T00:16:20.084Z,85.20
2018-07-11T00:18:49.341Z,85.60
2018-07-11T00:21:18.627Z,86.30
2018-07-11T00:23:47.909Z,86.10
2018-07-11T00:26:17.196Z,87.10
2018-07-11T00:28:46.509Z,87.40
2018-07-11T00:31:15.837Z,87.60
2018-07-11T00:33:45.088Z,87.20
2018-07-11T00:36:14.407Z,86.90
2018-07-11T00:38:44.254Z,86.80
2018-07-11T00:41:13.636Z,86.90
2018-07-11T00:43:43.070Z,87.60
2018-07-11T00:46:12.618Z,88.50
2018-07-11T00:48:41.941Z,89.10
2018-07-11T00:51:11.301Z,89.10
2018-07-11T00:53:40.661Z,89.30
2018-07-11T00:56:10.040Z,89.90
2018-07-11T00:58:43.288Z,90.20
2018-07-11T01:01:15.498Z,90.30
2018-07-11T01:03:52.500Z,90.10
2018-07-11T01:06:21.648Z,90.10
2018-07-11T01:08:55.005Z,90.20
2018-07-11T01:11:24.250Z,90.00
2018-07-11T01:13:53.329Z,90.10
2018-07-11T01:16:24.042Z,90.00
2018-07-11T01:19:01.900Z,89.80
2018-07-11T01:21:31.787Z,89.60
2018-07-11T01:24:00.904Z,89.20
2018-07-11T01:26:31.048Z,89.10
2018-07-11T01:29:00.279Z,89.00
2018-07-11T01:31:29.345Z,89.20
2018-07-11T01:33:58.736Z,90.00
2018-07-11T01:36:28.032Z,90.30
2018-07-11T01:38:57.556Z,90.70
2018-07-11T01:41:26.711Z,91.50
2018-07-11T01:43:55.768Z,91.10
2018-07-11T01:46:28.222Z,90.80
2018-07-11T01:48:57.387Z,90.70
2018-07-11T01:53:42.509Z,90.60
2018-07-11T01:56:11.901Z,90.40
2018-07-11T01:58:43.598Z,90.10
2018-07-11T02:01:12.880Z,90.10
2018-07-11T02:03:42.007Z,90.30
2018-07-11T02:06:11.369Z,90.40
2018-07-11T02:08:40.701Z,90.40
2018-07-11T02:11:09.808Z,90.40
2018-07-11T02:13:39.147Z,90.70
2018-07-11T02:16:11.125Z,90.50
2018-07-11T02:18:40.290Z,90.80
2018-07-11T02:21:09.402Z,90.40
2018-07-11T02:23:39.040Z,90.60
2018-07-11T02:26:08.594Z,90.90
2018-07-11T02:28:37.961Z,90.70
2018-07-11T02:31:07.052Z,90.60
2018-07-11T02:33:36.088Z,90.90
2018-07-11T02:36:05.214Z,91.00
2018-07-11T02:38:34.324Z,91.40
2018-07-11T02:41:03.261Z,90.50
2018-07-11T02:43:32.284Z,90.40
2018-07-11T02:46:01.439Z,90.80
2018-07-11T02:48:30.749Z,90.70
2018-07-11T02:51:00.091Z,91.00
2018-07-11T02:53:29.149Z,90.70
2018-07-11T02:55:58.512Z,90.70
2018-07-11T02:58:27.561Z,90.70
2018-07-11T03:01:00.931Z,90.80
2018-07-11T03:03:30.074Z,90.90
2018-07-11T03:05:59.089Z,90.90
2018-07-11T03:08:42.857Z,90.90
2018-07-11T03:11:11.865Z,91.00
2018-07-11T03:13:40.925Z,90.90
2018-07-11T03:16:10.013Z,91.00
2018-07-11T03:18:39.275Z,91.10
2018-07-11T03:21:08.265Z,91.10
2018-07-11T03:23:37.416Z,91.20
2018-07-11T03:26:06.502Z,91.40
2018-07-11T03:28:35.749Z,91.40
2018-07-11T03:31:04.773Z,91.30
2018-07-11T03:33:33.851Z,91.40
2018-07-11T03:36:02.828Z,91.40
2018-07-11T03:38:34.824Z,91.40
2018-07-11T03:41:04.094Z,91.20
2018-07-11T03:43:33.294Z,90.80
2018-07-11T03:46:02.410Z,90.70
2018-07-11T03:48:31.493Z,90.30
2018-07-11T03:51:00.473Z,90.40
2018-07-11T03:53:29.533Z,90.20
2018-07-11T03:55:58.473Z,90.10
2018-07-11T03:58:27.575Z,90.20
2018-07-11T04:00:56.692Z,90.10
2018-07-11T04:03:25.671Z,90.10
2018-07-11T04:05:54.630Z,90.10
2018-07-11T04:08:23.840Z,90.30
2018-07-11T04:10:56.468Z,90.40
2018-07-11T04:13:25.669Z,90.00
2018-07-11T04:15:54.791Z,89.40
2018-07-11T04:18:30.687Z,90.00
2018-07-11T04:21:01.453Z,90.10
2018-07-11T04:23:30.638Z,90.30
2018-07-11T04:26:00.211Z,90.10
2018-07-11T04:28:30.017Z,89.90
2018-07-11T04:30:59.307Z,89.60
2018-07-11T04:33:28.563Z,88.50
2018-07-11T04:35:57.778Z,88.80
2018-07-11T04:38:27.134Z,89.10
2018-07-11T04:40:56.437Z,88.20
2018-07-11T04:43:28.056Z,88.00
2018-07-11T04:45:57.375Z,88.60
2018-07-11T04:48:26.675Z,88.00
2018-07-11T04:50:56.034Z,88.60
2018-07-11T04:53:27.602Z,88.40
2018-07-11T04:55:59.728Z,88.80
2018-07-11T04:58:29.637Z,89.20
2018-07-11T05:00:58.988Z,90.20
2018-07-11T05:03:34.267Z,90.60
2018-07-11T05:06:03.530Z,90.50
2018-07-11T05:08:32.728Z,90.10
2018-07-11T05:11:01.940Z,90.50
2018-07-11T05:13:31.207Z,90.20
2018-07-11T05:16:00.352Z,90.10
2018-07-11T05:18:29.520Z,89.10
2018-07-11T05:20:58.641Z,89.00
2018-07-11T05:23:27.872Z,89.00
2018-07-11T05:25:56.991Z,88.90
2018-07-11T05:28:26.150Z,88.70
2018-07-11T05:30:55.392Z,88.60
2018-07-11T05:33:24.727Z,88.40
2018-07-11T05:35:53.959Z,88.10
2018-07-11T05:38:23.099Z,87.60
2018-07-11T05:40:52.243Z,87.90
2018-07-11T05:43:21.507Z,87.50
2018-07-11T05:45:50.632Z,87.10
2018-07-11T05:48:20.797Z,87.40
2018-07-11T05:50:49.936Z,87.40
2018-07-11T05:53:19.039Z,87.60
2018-07-11T05:55:48.310Z,87.70
2018-07-11T05:58:17.498Z,88.40
2018-07-11T06:00:46.834Z,88.30
2018-07-11T06:03:16.168Z,87.50
2018-07-11T06:05:45.359Z,86.90
2018-07-11T06:08:14.529Z,87.10
2018-07-11T06:10:43.786Z,86.90
2018-07-11T06:13:12.979Z,87.90
2018-07-11T06:15:42.445Z,87.80
2018-07-11T06:18:11.920Z,87.10
2018-07-11T06:20:41.234Z,87.20
2018-07-11T06:23:10.453Z,86.80
2018-07-11T06:25:42.780Z,86.30
2018-07-11T06:28:11.932Z,86.50
2018-07-11T06:30:41.156Z,86.30
2018-07-11T06:33:10.513Z,85.50
2018-07-11T06:35:39.830Z,85.20
2018-07-11T06:38:09.223Z,85.30
2018-07-11T06:40:38.639Z,84.70
2018-07-11T06:43:08.072Z,84.70
2018-07-11T06:45:37.491Z,85.10
2018-07-11T06:48:06.855Z,85.00
2018-07-11T06:50:36.326Z,85.10
2018-07-11T06:53:05.710Z,84.90
2018-07-11T06:55:35.175Z,84.50
2018-07-11T06:58:06.591Z,83.80
2018-07-11T07:00:36.390Z,84.30
2018-07-11T07:03:05.936Z,83.70
2018-07-11T07:05:35.391Z,83.00
2018-07-11T07:08:04.851Z,83.60
2018-07-11T07:10:34.670Z,83.80
2018-07-11T07:13:04.231Z,83.70
2018-07-11T07:15:33.653Z,83.30
2018-07-11T07:18:03.235Z,82.50
2018-07-11T07:20:32.605Z,82.10
2018-07-11T07:23:02.222Z,82.40
2018-07-11T07:25:31.593Z,82.80
2018-07-11T07:28:00.879Z,83.40
2018-07-11T07:30:30.074Z,82.80
2018-07-11T07:32:59.343Z,83.10
2018-07-11T07:35:30.438Z,83.50
2018-07-11T07:37:59.629Z,84.00
2018-07-11T07:40:28.855Z,83.60
2018-07-11T07:42:58.149Z,82.50
2018-07-11T07:45:27.663Z,82.00
2018-07-11T07:47:56.892Z,82.40
2018-07-11T07:50:26.122Z,82.50
2018-07-11T07:52:57.639Z,81.20
2018-07-11T07:55:27.178Z,80.40
2018-07-11T07:57:56.656Z,79.80
2018-07-11T08:00:26.377Z,79.90
2018-07-11T08:02:59.109Z,78.30
2018-07-11T08:05:28.498Z,77.80
2018-07-11T08:07:57.673Z,76.80
2018-07-11T08:10:27.326Z,77.60
2018-07-11T08:12:57.065Z,75.80
2018-07-11T08:15:26.662Z,76.10
2018-07-11T08:17:56.090Z,75.60
2018-07-11T08:20:25.621Z,74.80
2018-07-11T08:23:15.770Z,73.60
2018-07-11T08:25:58.212Z,74.70
2018-07-11T08:29:35.038Z,75.50
2018-07-11T08:34:18.148Z,76.10
2018-07-11T08:37:03.929Z,75.00
2018-07-11T08:40:15.060Z,74.10
2018-07-11T08:43:01.162Z,73.60
2018-07-11T08:45:44.782Z,73.60
2018-07-11T08:52:29.733Z,74.00
2018-07-11T08:55:41.120Z,73.80
2018-07-11T08:58:21.080Z,72.70
2018-07-11T09:01:20.721Z,72.80
2018-07-11T09:04:38.554Z,73.00
2018-07-11T09:07:21.493Z,72.00
2018-07-11T09:10:05.577Z,71.60
2018-07-11T09:12:44.872Z,71.40
2018-07-11T09:17:29.605Z,71.20
2018-07-11T09:20:10.893Z,70.90
2018-07-11T09:22:53.711Z,68.90
2018-07-11T09:25:23.515Z,70.40
2018-07-11T09:27:53.025Z,71.40
2018-07-11T09:30:22.430Z,71.50
2018-07-11T09:32:54.410Z,71.30
2018-07-11T09:35:25.074Z,70.90
2018-07-11T09:37:55.491Z,71.50
2018-07-11T09:40:25.347Z,70.70
2018-07-11T09:42:56.082Z,69.00
2018-07-11T09:45:26.018Z,69.10
2018-07-11T09:47:57.000Z,69.40
2018-07-11T09:50:26.470Z,68.20
2018-07-11T09:52:56.446Z,66.20
2018-07-11T09:55:25.828Z,65.70
2018-07-11T09:58:05.726Z,64.60
2018-07-11T10:00:45.435Z,64.30
2018-07-11T10:03:17.205Z,64.30
2018-07-11T10:05:46.695Z,62.60
2018-07-11T10:08:16.404Z,59.90
2018-07-11T10:10:46.158Z,59.50
2018-07-11T10:13:15.781Z,59.00
2018-07-11T10:15:45.436Z,59.40
2018-07-11T10:18:14.735Z,57.50
2018-07-11T10:20:44.143Z,56.50
2018-07-11T10:23:13.448Z,55.90
2018-07-11T10:25:43.174Z,55.50
2018-07-11T10:28:19.543Z,53.90
2018-07-11T10:30:49.102Z,54.80
2018-07-11T10:33:18.262Z,55.40
2018-07-11T10:35:47.772Z,55.50
2018-07-11T10:38:17.154Z,54.10
2018-07-11T10:40:47.209Z,54.00
2018-07-11T10:43:17.320Z,52.80
2018-07-11T10:45:47.440Z,53.10
2018-07-11T10:48:16.608Z,51.80
2018-07-11T10:50:45.795Z,50.10
2018-07-11T10:53:14.962Z,50.30
2018-07-11T10:55:46.095Z,50.80
2018-07-11T10:58:22.028Z,50.80
2018-07-11T11:01:05.033Z,50.30
2018-07-11T11:03:27.856Z,50.10
2018-07-11T11:05:57.455Z,49.80
2018-07-11T11:08:27.538Z,50.70
2018-07-11T11:10:57.420Z,51.70
2018-07-11T11:13:27.515Z,51.60
2018-07-11T11:15:57.443Z,51.60
2018-07-11T11:18:27.169Z,50.50
2018-07-11T11:20:58.628Z,49.80
2018-07-11T11:23:29.232Z,49.30
2018-07-11T11:25:59.391Z,48.00
2018-07-11T11:28:29.451Z,47.00
2018-07-11T11:30:59.172Z,47.00
2018-07-11T11:33:28.862Z,46.70
2018-07-11T11:35:58.580Z,46.50
2018-07-11T11:38:28.327Z,45.90
2018-07-11T11:40:58.079Z,45.70
2018-07-11T11:43:27.726Z,46.50
2018-07-11T11:45:57.562Z,45.70
2018-07-11T11:48:27.064Z,44.90
2018-07-11T11:50:56.733Z,44.60
2018-07-11T11:53:26.567Z,44.40
2018-07-11T11:55:56.161Z,44.50
2018-07-11T11:58:26.094Z,44.60
2018-07-11T12:00:55.666Z,43.60
2018-07-11T12:03:25.450Z,44.00
2018-07-11T12:06:01.040Z,45.00
2018-07-11T12:08:30.597Z,45.90
2018-07-11T12:11:00.253Z,47.80
2018-07-11T12:13:29.887Z,48.10
2018-07-11T12:15:59.588Z,48.50
2018-07-11T12:18:29.250Z,48.70
2018-07-11T12:21:00.043Z,47.90
2018-07-11T12:23:30.086Z,46.60
2018-07-11T12:26:05.635Z,45.00
2018-07-11T12:28:35.608Z,45.00
2018-07-11T12:31:06.103Z,43.10
2018-07-11T12:33:36.006Z,43.70
2018-07-11T12:36:05.851Z,44.00
2018-07-11T12:38:35.598Z,45.10
2018-07-11T12:41:05.266Z,43.70
2018-07-11T12:43:34.917Z,42.20
2018-07-11T12:46:04.495Z,41.60
2018-07-11T12:48:41.430Z,41.30
2018-07-11T12:51:12.594Z,41.60
2018-07-11T12:53:42.455Z,43.00
2018-07-11T12:56:12.170Z,44.20
2018-07-11T12:58:41.928Z,44.50
2018-07-11T13:01:11.617Z,44.30
2018-07-11T13:03:41.664Z,43.80
2018-07-11T13:06:12.320Z,39.80
2018-07-11T13:08:42.273Z,38.50
2018-07-11T13:11:11.770Z,37.60
2018-07-11T13:13:41.573Z,39.50
2018-07-11T13:16:11.314Z,39.80
2018-07-11T13:18:40.798Z,40.40
2018-07-11T13:21:10.688Z,40.00
2018-07-11T13:23:45.288Z,40.20
2018-07-11T13:26:14.773Z,38.90
2018-07-11T13:28:44.417Z,37.20
2018-07-11T13:31:13.790Z,35.80
2018-07-11T13:33:43.818Z,34.80
2018-07-11T13:36:13.294Z,34.70
2018-07-11T13:38:42.786Z,34.40
2018-07-11T13:41:12.488Z,35.00
2018-07-11T13:43:41.991Z,35.50
2018-07-11T13:46:11.467Z,36.50
2018-07-11T13:48:42.523Z,37.70
2018-07-11T13:51:12.224Z,38.50
2018-07-11T13:53:41.889Z,39.00
2018-07-11T13:56:11.573Z,39.10
2018-07-11T13:58:43.956Z,39.50
2018-07-11T14:01:13.646Z,39.90
2018-07-11T14:03:43.124Z,40.20
2018-07-11T14:06:12.499Z,40.30
2018-07-11T14:08:41.943Z,40.70
2018-07-11T14:11:11.433Z,41.20
2018-07-11T14:13:41.241Z,41.70
2018-07-11T14:16:10.880Z,42.30
2018-07-11T14:18:40.402Z,42.70
2018-07-11T14:21:10.366Z,42.80
2018-07-11T14:23:42.172Z,43.00
2018-07-11T14:26:13.890Z,43.40
2018-07-11T14:28:47.906Z,43.70
2018-07-11T14:31:22.707Z,44.00
2018-07-11T14:33:52.443Z,44.60
2018-07-11T14:36:22.484Z,45.00
2018-07-11T14:38:51.898Z,45.20
2018-07-11T14:41:21.375Z,45.40
2018-07-11T14:43:50.872Z,45.70
2018-07-11T14:46:20.611Z,46.00
2018-07-11T14:48:50.163Z,46.50
2018-07-11T14:51:22.579Z,46.70
2018-07-11T14:53:53.058Z,46.90
2018-07-11T14:56:22.721Z,47.40
2018-07-11T14:58:58.925Z,47.50
2018-07-11T15:01:30.418Z,47.90
2018-07-11T15:03:59.785Z,48.00
2018-07-11T15:06:29.140Z,48.60
2018-07-11T15:09:02.270Z,48.50
2018-07-11T15:11:31.699Z,48.50
2018-07-11T15:14:01.258Z,48.60
2018-07-11T15:16:30.577Z,48.70
2018-07-11T15:19:01.370Z,48.80
2018-07-11T15:21:32.014Z,49.10
2018-07-11T15:24:01.481Z,49.50
2018-07-11T15:26:31.005Z,49.60
2018-07-11T15:29:00.489Z,50.00
2018-07-11T15:31:30.700Z,50.20
2018-07-11T15:34:01.942Z,50.90
2018-07-11T15:36:31.911Z,51.50
2018-07-11T15:39:01.335Z,51.80
2018-07-11T15:41:32.381Z,52.10
2018-07-11T15:44:01.719Z,52.20
2018-07-11T15:46:31.263Z,52.60
2018-07-11T15:49:00.598Z,52.80
2018-07-11T15:51:29.870Z,53.00
2018-07-11T15:53:59.393Z,53.40
2018-07-11T15:56:29.097Z,53.90
2018-07-11T15:59:05.297Z,54.30
2018-07-11T16:01:46.261Z,57.70
2018-07-11T16:04:23.295Z,61.90
2018-07-11T16:06:53.523Z,64.90
2018-07-11T16:09:22.791Z,67.20
2018-07-11T16:11:51.988Z,69.20
2018-07-11T16:14:22.761Z,70.60
2018-07-11T16:16:54.808Z,72.50
2018-07-11T16:19:24.085Z,74.80
2018-07-11T16:21:53.971Z,75.60
2018-07-11T16:24:23.453Z,77.20
2018-07-11T16:26:52.857Z,79.50
2018-07-11T16:29:23.267Z,80.80
2018-07-11T16:31:54.928Z,81.20
2018-07-11T16:34:29.424Z,83.20
2018-07-11T16:37:02.096Z,83.50
2018-07-11T16:39:32.154Z,82.80
2018-07-11T16:42:06.514Z,84.20
2018-07-11T16:44:39.955Z,84.40
2018-07-11T16:47:12.096Z,85.10
2018-07-11T16:49:48.017Z,85.20
2018-07-11T16:52:19.391Z,85.20
2018-07-11T16:54:50.544Z,85.80
2018-07-11T16:57:30.973Z,85.10
2018-07-11T17:00:12.018Z,85.70
2018-07-11T17:02:46.868Z,84.60
2018-07-11T17:05:21.770Z,84.10
2018-07-11T17:08:03.241Z,83.80
2018-07-11T17:10:36.750Z,83.10
2018-07-11T17:13:10.938Z,83.30
2018-07-11T17:15:52.085Z,83.60
2018-07-11T17:18:47.889Z,83.90
2018-07-11T17:21:59.255Z,83.80
2018-07-11T17:24:36.786Z,83.90
2018-07-11T17:27:09.138Z,84.90
2018-07-11T17:29:42.594Z,85.40
2018-07-11T17:32:21.871Z,86.30
2018-07-11T17:34:51.027Z,87.20
2018-07-11T17:37:22.204Z,87.20
2018-07-11T17:39:58.356Z,86.90
2018-07-11T17:42:33.792Z,87.50
2018-07-11T17:45:19.238Z,87.20
2018-07-11T17:49:06.751Z,86.00
2018-07-11T17:51:49.994Z,85.30
2018-07-11T17:54:19.307Z,85.10
2018-07-11T17:56:52.439Z,85.60
2018-07-11T18:00:32.240Z,85.60
2018-07-11T18:03:06.359Z,86.10
2018-07-11T18:07:50.192Z,85.60
2018-07-11T18:10:51.319Z,85.40
2018-07-11T18:13:33.905Z,85.60
2018-07-11T18:20:23.242Z,86.00
2018-07-11T18:25:03.803Z,85.40
2018-07-11T18:27:45.630Z,85.50
2018-07-11T18:31:01.312Z,86.20
2018-07-11T18:33:39.288Z,87.90
2018-07-11T18:36:17.608Z,90.70
2018-07-11T18:39:00.392Z,92.10
2018-07-11T18:41:37.971Z,91.80
2018-07-11T18:44:17.001Z,92.60
2018-07-11T18:47:02.056Z,93.70
2018-07-11T18:49:41.343Z,94.50
2018-07-11T18:52:23.760Z,95.00
2018-07-11T18:55:01.767Z,95.80
2018-07-11T18:57:40.581Z,95.70
2018-07-11T19:02:25.650Z,95.70
2018-07-11T19:05:06.772Z,95.80
2018-07-11T19:07:50.391Z,96.30
2018-07-11T19:10:31.238Z,96.60
2018-07-11T19:13:02.216Z,96.80
2018-07-11T19:15:47.392Z,97.00
2018-07-11T19:18:32.417Z,97.00
2018-07-11T19:21:11.042Z,97.10
2018-07-11T19:24:08.381Z,96.30
2018-07-11T19:27:52.771Z,96.60
2018-07-11T19:30:30.632Z,96.90
2018-07-11T19:33:10.668Z,96.90
2018-07-11T19:35:48.278Z,97.00
2018-07-11T19:38:30.089Z,96.90
2018-07-11T19:41:17.998Z,96.70
2018-07-11T19:43:56.777Z,96.70
2018-07-11T19:46:45.655Z,96.80
2018-07-11T19:49:20.879Z,96.80
2018-07-11T19:51:59.210Z,96.50
2018-07-11T19:54:36.711Z,96.10
2018-07-11T19:57:05.917Z,96.10
2018-07-11T19:59:35.270Z,96.10
2018-07-11T20:02:04.924Z,95.90
2018-07-11T20:04:34.182Z,95.60
2018-07-11T20:07:03.571Z,95.70
2018-07-11T20:09:32.802Z,95.40
2018-07-11T20:12:08.458Z,95.60
2018-07-11T20:14:37.788Z,95.40
2018-07-11T20:17:07.302Z,95.40
2018-07-11T20:19:36.692Z,95.40
2018-07-11T20:22:05.880Z,95.20
2018-07-11T20:24:34.974Z,95.30
2018-07-11T20:27:04.491Z,95.00
2018-07-11T20:29:33.922Z,94.90
2018-07-11T20:32:03.610Z,94.90
2018-07-11T20:34:32.747Z,94.70
2018-07-11T20:37:02.197Z,94.70
2018-07-11T20:39:31.583Z,94.70
2018-07-11T20:42:00.920Z,94.60
2018-07-11T20:44:30.276Z,94.70
2018-07-11T20:46:59.558Z,94.70
2018-07-11T20:49:33.999Z,94.60
2018-07-11T20:52:04.612Z,94.60
2018-07-11T20:54:33.851Z,94.60
2018-07-11T20:57:03.189Z,94.60
2018-07-11T21:01:47.108Z,94.60
2018-07-11T21:04:28.814Z,94.40
2018-07-11T21:09:12.801Z,94.60
2018-07-11T21:14:06.531Z,94.40
2018-07-11T21:18:47.415Z,94.60
2018-07-11T21:21:16.548Z,94.60
2018-07-11T21:23:45.738Z,94.60
2018-07-11T21:26:15.165Z,94.80
2018-07-11T21:28:44.293Z,94.50
2018-07-11T21:31:13.388Z,94.60
2018-07-11T21:33:42.519Z,94.50
2018-07-11T21:36:11.629Z,94.70
2018-07-11T21:38:40.831Z,94.70
2018-07-11T21:41:09.935Z,94.80
2018-07-11T21:43:39.174Z,94.80
2018-07-11T21:46:08.330Z,94.80
2018-07-11T21:48:37.623Z,94.80
2018-07-11T21:51:06.842Z,95.00
2018-07-11T21:53:36.003Z,95.10
2018-07-11T21:56:05.174Z,95.10
2018-07-11T21:58:34.361Z,95.30
2018-07-11T22:01:05.951Z,95.30
2018-07-11T22:03:35.316Z,95.50
2018-07-11T22:06:04.501Z,95.60
2018-07-11T22:08:33.634Z,95.60
2018-07-11T22:11:02.856Z,95.70
2018-07-11T22:13:32.151Z,95.70
2018-07-11T22:16:01.279Z,95.90
2018-07-11T22:18:33.811Z,96.10
2018-07-11T22:21:02.381Z,96.20
2018-07-11T22:23:30.060Z,96.40
2018-07-11T22:25:57.693Z,96.50
2018-07-11T22:28:25.380Z,96.70
2018-07-11T22:30:52.986Z,96.90
2018-07-11T22:33:20.683Z,97.00
2018-07-11T22:35:48.370Z,96.90
2018-07-11T22:38:16.056Z,97.00
2018-07-11T22:40:44.197Z,97.20
2018-07-11T22:43:11.815Z,97.30
2018-07-11T22:45:44.055Z,97.40
2018-07-11T22:50:48.873Z,97.60
2018-07-11T22:53:16.488Z,97.60
2018-07-11T22:55:44.113Z,97.50
2018-07-11T22:58:15.792Z,97.60
2018-07-11T23:00:49.132Z,97.60
2018-07-11T23:03:16.745Z,97.60
2018-07-11T23:05:44.352Z,97.50
2018-07-11T23:08:11.975Z,97.50
2018-07-11T23:10:39.665Z,97.20
2018-07-11T23:13:07.286Z,97.20
2018-07-11T23:15:35.029Z,97.20
2018-07-11T23:18:02.613Z,97.00
2018-07-11T23:20:38.555Z,97.00
2018-07-11T23:23:06.319Z,97.00
2018-07-11T23:25:33.974Z,96.90
2018-07-11T23:28:01.549Z,96.90
2018-07-11T23:30:29.183Z,96.80
2018-07-11T23:32:56.760Z,96.60
2018-07-11T23:35:24.419Z,96.50
2018-07-11T23:37:57.610Z,96.50
2018-07-11T23:40:28.096Z,96.40
2018-07-11T23:42:55.707Z,96.50
2018-07-11T23:45:25.302Z,96.70
2018-07-11T23:47:52.985Z,96.60
2018-07-11T23:50:20.585Z,96.60
2018-07-11T23:52:56.757Z,96.60
2018-07-11T23:55:26.361Z,96.50
